39.3°F
Current conditions from King Hill
Updated every 5 minutes
 
  Saturday October 25, 2014

Station Historical Data
Daily Summary for January 13, 2012 Units:  Metric    English   Both
« Previous Day
Next Day »
Daily Weekly Monthly Yearly Custom
  High: Low: Average:
Temperature: 4.1 °C -6.4 °C -0.8 °C
Dew Point: 1.4 °C -8.2 °C -2.7 °C
Humidity: 92% 78% 88%
Wind Speed: 22.5km/h 1.6km/h 8.7km/h
Wind Gust: 41.8km/h - -
Wind- - SW
Pressure: 999.2 hPa 982.3 hPa -
Precipitation: 0 mm    
Historical Graphs
 
 
Tabular Data for January 13, 2012
Time Temperature Dew Point Pressure Wind Wind Speed Wind Gust Humidity Daily Rainfall
00:00 0.5 °C -2.1 °C 996.2 hPa SSW 1.6 km/h 12.9 km/h 83% 0 mm
00:05 0.5 °C -2.1 °C 995.8 hPa SSW 4.8 km/h 12.9 km/h 83% 0 mm
00:10 0.4 °C -2.1 °C 996.2 hPa SSW 6.4 km/h 19.3 km/h 83% 0 mm
00:15 0.4 °C -1.9 °C 996.2 hPa SSW 6.4 km/h 19.3 km/h 84% 0 mm
00:20 0.4 °C -2.1 °C 996.2 hPa SSW 4.8 km/h 12.9 km/h 83% 0 mm
00:25 0.4 °C -1.9 °C 995.8 hPa SW 3.2 km/h 12.9 km/h 84% 0 mm
00:30 0.4 °C -1.9 °C 995.8 hPa SSW 6.4 km/h 12.9 km/h 84% 0 mm
00:35 0.4 °C -1.9 °C 995.8 hPa SSW 6.4 km/h 11.3 km/h 84% 0 mm
00:40 0.4 °C -1.9 °C 995.5 hPa South 3.2 km/h 11.3 km/h 84% 0 mm
00:45 0.5 °C -1.9 °C 995.5 hPa South 4.8 km/h 12.9 km/h 84% 0 mm
00:50 0.6 °C -1.8 °C 995.5 hPa SSW 3.2 km/h 12.9 km/h 84% 0 mm
00:55 0.7 °C -1.9 °C 995.1 hPa SSW 6.4 km/h 14.5 km/h 83% 0 mm
01:00 0.8 °C -1.8 °C 995.1 hPa South 9.7 km/h 19.3 km/h 83% 0 mm
01:05 0.8 °C -1.7 °C 995.1 hPa South 8 km/h 19.3 km/h 83% 0 mm
01:10 0.9 °C -1.8 °C 995.1 hPa SSW 6.4 km/h 17.7 km/h 82% 0 mm
01:15 0.9 °C -1.7 °C 995.1 hPa SSW 9.7 km/h 19.3 km/h 83% 0 mm
01:20 0.9 °C -1.7 °C 995.5 hPa SSW 3.2 km/h 19.3 km/h 83% 0 mm
01:25 0.9 °C -1.6 °C 995.5 hPa SSW 9.7 km/h 20.9 km/h 83% 0 mm
01:30 1 °C -1.6 °C 995.5 hPa SSW 8 km/h 22.5 km/h 83% 0 mm
01:35 1 °C -1.6 °C 995.5 hPa SSW 11.3 km/h 22.5 km/h 83% 0 mm
01:40 0.9 °C -1.6 °C 995.5 hPa South 11.3 km/h 20.9 km/h 83% 0 mm
01:45 0.9 °C -1.6 °C 995.5 hPa SSW 6.4 km/h 20.9 km/h 83% 0 mm
01:50 0.9 °C -1.6 °C 995.8 hPa SSW 3.2 km/h 16.1 km/h 83% 0 mm
01:55 0.9 °C -1.6 °C 995.8 hPa SW 1.6 km/h 16.1 km/h 83% 0 mm
02:00 0.9 °C -1.6 °C 995.8 hPa SSW 6.4 km/h 17.7 km/h 83% 0 mm
02:05 0.9 °C -1.6 °C 995.8 hPa SSW 6.4 km/h 17.7 km/h 83% 0 mm
02:10 0.9 °C -1.6 °C 995.5 hPa South 9.7 km/h 20.9 km/h 83% 0 mm
02:15 0.9 °C -1.6 °C 995.5 hPa South 9.7 km/h 20.9 km/h 83% 0 mm
02:20 0.9 °C -1.6 °C 995.5 hPa SSW 8 km/h 17.7 km/h 83% 0 mm
02:25 0.9 °C -1.7 °C 995.5 hPa SSW 3.2 km/h 14.5 km/h 83% 0 mm
02:30 0.8 °C -1.8 °C 995.1 hPa South 11.3 km/h 19.3 km/h 83% 0 mm
02:35 0.7 °C -1.7 °C 995.5 hPa South 8 km/h 19.3 km/h 84% 0 mm
02:40 0.7 °C -1.7 °C 995.5 hPa SSW 6.4 km/h 16.1 km/h 84% 0 mm
02:45 0.7 °C -1.7 °C 995.5 hPa SW 3.2 km/h 16.1 km/h 84% 0 mm
02:50 0.7 °C -1.7 °C 995.5 hPa South 4.8 km/h 11.3 km/h 84% 0 mm
02:55 0.6 °C -1.6 °C 995.5 hPa SSW 1.6 km/h 11.3 km/h 85% 0 mm
03:00 0.7 °C -1.6 °C 995.1 hPa South 6.4 km/h 12.9 km/h 85% 0 mm
03:05 0.7 °C -1.6 °C 995.1 hPa SSW 8 km/h 17.7 km/h 85% 0 mm
03:10 0.8 °C -1.4 °C 995.1 hPa SSW 4.8 km/h 17.7 km/h 85% 0 mm
03:15 0.8 °C -1.6 °C 995.1 hPa South 4.8 km/h 14.5 km/h 84% 0 mm
03:20 0.8 °C -1.4 °C 995.1 hPa SSW 6.4 km/h 14.5 km/h 85% 0 mm
03:25 0.8 °C -1.4 °C 995.1 hPa SSW 8 km/h 14.5 km/h 85% 0 mm
03:30 0.9 °C -1.3 °C 995.1 hPa South 6.4 km/h 16.1 km/h 85% 0 mm
03:35 1 °C -1.2 °C 995.1 hPa SSW 6.4 km/h 16.1 km/h 85% 0 mm
03:40 1.2 °C -1.1 °C 994.8 hPa SSW 8 km/h 17.7 km/h 85% 0 mm
03:45 1.3 °C -0.9 °C 994.5 hPa SSW 9.7 km/h 17.7 km/h 85% 0 mm
03:50 1.3 °C -0.9 °C 994.5 hPa SSW 6.4 km/h 17.7 km/h 85% 0 mm
03:55 1.3 °C -0.9 °C 994.5 hPa SSW 3.2 km/h 16.1 km/h 85% 0 mm
04:00 1.3 °C -1.1 °C 994.1 hPa South 3.2 km/h 12.9 km/h 84% 0 mm
04:05 1.3 °C -1.1 °C 994.5 hPa SW 3.2 km/h 12.9 km/h 84% 0 mm
04:10 1.3 °C -0.9 °C 994.5 hPa South 3.2 km/h 14.5 km/h 85% 0 mm
04:15 1.3 °C -0.9 °C 994.1 hPa South 4.8 km/h 14.5 km/h 85% 0 mm
04:20 1.5 °C -0.7 °C 994.1 hPa SSW 6.4 km/h 12.9 km/h 85% 0 mm
04:25 1.6 °C -0.6 °C 994.1 hPa SSW 6.4 km/h 12.9 km/h 85% 0 mm
04:30 1.7 °C -0.6 °C 993.8 hPa SSW 4.8 km/h 12.9 km/h 85% 0 mm
04:40 1.8 °C -0.6 °C 993.8 hPa SSW 1.6 km/h 12.9 km/h 84% 0 mm
04:45 1.7 °C -0.7 °C 993.8 hPa Calm   4.8 km/h 84% 0 mm
04:55 1.7 °C -0.7 °C 993.5 hPa SSE 1.6 km/h 6.4 km/h 84% 0 mm
05:00 1.8 °C -0.5 °C 993.5 hPa South 4.8 km/h 12.9 km/h 85% 0 mm
05:05 1.9 °C -0.5 °C 993.1 hPa South 4.8 km/h 12.9 km/h 84% 0 mm
05:10 2 °C -0.4 °C 993.1 hPa South 4.8 km/h 14.5 km/h 84% 0 mm
05:15 2.2 °C -0.3 °C 993.1 hPa South 4.8 km/h 14.5 km/h 84% 0 mm
05:20 2.2 °C -0.2 °C 993.1 hPa South 6.4 km/h 12.9 km/h 84% 0 mm
05:25 2.3 °C -0.3 °C 992.8 hPa SSW 1.6 km/h 12.9 km/h 83% 0 mm
05:35 2.3 °C -0.3 °C 992.8 hPa South 3.2 km/h 9.7 km/h 83% 0 mm
05:45 2.4 °C -0.2 °C 992.8 hPa South 6.4 km/h 14.5 km/h 83% 0 mm
05:50 2.5 °C -0.1 °C 992.4 hPa South 8 km/h 12.9 km/h 83% 0 mm
05:55 2.5 °C -0.3 °C 992.4 hPa South 8 km/h 16.1 km/h 82% 0 mm
06:00 2.6 °C -0.2 °C 992.1 hPa South 6.4 km/h 17.7 km/h 82% 0 mm
06:05 2.5 °C -0.3 °C 992.1 hPa SSE 3.2 km/h 17.7 km/h 82% 0 mm
06:10 2.4 °C -0.3 °C 992.1 hPa ESE 3.2 km/h 9.7 km/h 82% 0 mm
06:15 2.2 °C -0.7 °C 992.1 hPa East 4.8 km/h 9.7 km/h 81% 0 mm
06:20 1.6 °C -1.2 °C 991.8 hPa East 1.6 km/h 11.3 km/h 82% 0 mm
06:25 1.2 °C -1.2 °C 991.4 hPa East 1.6 km/h 11.3 km/h 84% 0 mm
06:35 0.9 °C -1.3 °C 991.1 hPa East 3.2 km/h 9.7 km/h 85% 0 mm
06:40 0.8 °C -1.2 °C 991.1 hPa ENE 3.2 km/h 9.7 km/h 86% 0 mm
06:45 0.8 °C -1.3 °C 990.7 hPa ENE 3.2 km/h 9.7 km/h 86% 0 mm
06:55 0.8 °C -1.3 °C 990.4 hPa ENE 1.6 km/h 11.3 km/h 86% 0 mm
07:00 0.8 °C -1.3 °C 990.1 hPa ENE 4.8 km/h 11.3 km/h 86% 0 mm
07:05 0.8 °C -1.3 °C 990.1 hPa East 3.2 km/h 11.3 km/h 86% 0 mm
07:10 0.8 °C -1.3 °C 990.1 hPa Calm   11.3 km/h 86% 0 mm
07:15 0.8 °C -1.3 °C 990.1 hPa ESE 1.6 km/h 8 km/h 86% 0 mm
07:20 0.8 °C -1.2 °C 989.7 hPa ENE 1.6 km/h 8 km/h 86% 0 mm
07:25 0.9 °C -1.1 °C 989.7 hPa East 3.2 km/h 8 km/h 86% 0 mm
07:30 1 °C -1.1 °C 989.4 hPa ENE 3.2 km/h 8 km/h 86% 0 mm
07:35 1.1 °C -1 °C 989.4 hPa East 1.6 km/h 8 km/h 86% 0 mm
07:45 1.1 °C -1 °C 988.7 hPa ENE 4.8 km/h 9.7 km/h 86% 0 mm
07:50 1.1 °C -1 °C 988.4 hPa Calm   9.7 km/h 86% 0 mm
07:55 1.1 °C -1 °C 988.7 hPa East 3.2 km/h 6.4 km/h 86% 0 mm
08:00 1.1 °C -1.2 °C 988.7 hPa ENE 3.2 km/h 11.3 km/h 85% 0 mm
08:05 1 °C -1.2 °C 988.4 hPa ENE 1.6 km/h 11.3 km/h 85% 0 mm
08:10 1 °C -1.2 °C 988.7 hPa Calm   6.4 km/h 85% 0 mm
08:15 1 °C -1.2 °C 988.4 hPa East 3.2 km/h 8 km/h 85% 0 mm
08:20 1.1 °C -1 °C 988.4 hPa East 1.6 km/h 8 km/h 86% 0 mm
08:25 1.1 °C -1 °C 988 hPa Calm   8 km/h 86% 0 mm
08:30 1.1 °C -0.9 °C 988.4 hPa Calm   4.8 km/h 87% 0 mm
08:35 1 °C -0.9 °C 988.4 hPa Calm   4.8 km/h 87% 0 mm
08:40 0.9 °C -1 °C 988.4 hPa Calm   3.2 km/h 87% 0 mm
08:50 1 °C -0.8 °C 988 hPa Calm     88% 0 mm
08:55 1 °C -0.8 °C 988 hPa SE 3.2 km/h 6.4 km/h 88% 0 mm
09:00 1.3 °C -0.3 °C 987.7 hPa SE 1.6 km/h 8 km/h 89% 0 mm
09:05 1.3 °C -0.3 °C 987.7 hPa Calm   8 km/h 89% 0 mm
09:10 1.5 °C -0.1 °C 987.7 hPa Calm   3.2 km/h 89% 0 mm
09:15 1.7 °C 0.3 °C 987.4 hPa Calm   4.8 km/h 90% 0 mm
09:20 1.8 °C 0.4 °C 987.4 hPa SE 1.6 km/h 4.8 km/h 90% 0 mm
09:25 1.8 °C 0.3 °C 987.4 hPa Calm   4.8 km/h 90% 0 mm
09:35 1.6 °C 0.2 °C 987 hPa Calm   4.8 km/h 90% 0 mm
09:40 1.6 °C 0.2 °C 986.7 hPa Calm     90% 0 mm
09:45 1.6 °C 0.2 °C 986.3 hPa Calm     90% 0 mm
09:50 1.7 °C 0.2 °C 986.3 hPa Calm     90% 0 mm
09:55 1.8 °C 0.4 °C 986.3 hPa Calm     90% 0 mm
10:00 1.9 °C 0.4 °C 986.3 hPa Calm     90% 0 mm
10:05 1.8 °C 0.4 °C 986 hPa Calm     90% 0 mm
10:10 1.8 °C 0.3 °C 986 hPa Calm     90% 0 mm
10:15 1.8 °C 0.4 °C 985.7 hPa Calm     90% 0 mm
10:20 1.8 °C 0.4 °C 985.3 hPa SE 3.2 km/h 6.4 km/h 90% 0 mm
10:25 1.8 °C 0.4 °C 985.3 hPa SE 3.2 km/h 6.4 km/h 90% 0 mm
10:30 1.9 °C 0.4 °C 985.3 hPa SE 1.6 km/h 4.8 km/h 90% 0 mm
10:35 2.1 °C 0.7 °C 985 hPa SE 1.6 km/h 6.4 km/h 90% 0 mm
10:40 2.2 °C 0.8 °C 985 hPa SE 1.6 km/h 8 km/h 90% 0 mm
10:45 2.7 °C 1.2 °C 984.6 hPa SSE 4.8 km/h 8 km/h 90% 0 mm
10:50 3.2 °C 1.4 °C 984.3 hPa South 8 km/h 20.9 km/h 88% 0 mm
10:55 3.6 °C 1.2 °C 984 hPa SSW 12.9 km/h 20.9 km/h 84% 0 mm
11:00 3.8 °C 1.2 °C 983.6 hPa South 8 km/h 20.9 km/h 83% 0 mm
11:05 3.8 °C 0.9 °C 983.6 hPa South 8 km/h 17.7 km/h 81% 0 mm
11:10 3.8 °C 0.9 °C 983.3 hPa South 6.4 km/h 16.1 km/h 81% 0 mm
11:15 4.1 °C 0.9 °C 983.3 hPa South 6.4 km/h 14.5 km/h 80% 0 mm
11:20 4.1 °C 0.8 °C 983 hPa SSE 4.8 km/h 22.5 km/h 79% 0 mm
11:25 4.1 °C 0.8 °C 983 hPa SSW 4.8 km/h 22.5 km/h 79% 0 mm
11:30 4.1 °C 0.8 °C 982.6 hPa South 8 km/h 17.7 km/h 79% 0 mm
11:35 4.1 °C 0.7 °C 982.6 hPa South 3.2 km/h 17.7 km/h 79% 0 mm
11:40 4 °C 0.5 °C 982.6 hPa SSW 6.4 km/h 16.1 km/h 78% 0 mm
11:45 3.8 °C 0.5 °C 982.6 hPa South 6.4 km/h 19.3 km/h 79% 0 mm
11:50 3.7 °C 0.4 °C 982.3 hPa SSW 8 km/h 20.9 km/h 79% 0 mm
11:55 3.3 °C 0.2 °C 982.3 hPa SSW 11.3 km/h 20.9 km/h 80% 0 mm
12:00 2.9 °C 0.2 °C 982.3 hPa SSW 6.4 km/h 20.9 km/h 82% 0 mm
12:05 2.8 °C 0.2 °C 982.3 hPa SSW 4.8 km/h 19.3 km/h 83% 0 mm
12:10 2.5 °C 0.1 °C 982.3 hPa SW 6.4 km/h 11.3 km/h 84% 0 mm
12:15 2.3 °C -0.1 °C 982.3 hPa SW 4.8 km/h 12.9 km/h 84% 0 mm
12:20 2.1 °C -0.3 °C 982.3 hPa SW 9.7 km/h 14.5 km/h 84% 0 mm
12:25 1.9 °C -0.4 °C 982.3 hPa SW 3.2 km/h 14.5 km/h 85% 0 mm
12:30 1.7 °C -0.6 °C 982.6 hPa WSW 9.7 km/h 16.1 km/h 85% 0 mm
12:35 1.3 °C -0.8 °C 983 hPa WSW 6.4 km/h 16.1 km/h 86% 0 mm
12:40 1.1 °C -0.9 °C 983 hPa West 9.7 km/h 22.5 km/h 87% 0 mm
12:45 0.8 °C -1.1 °C 983 hPa WSW 9.7 km/h 22.5 km/h 87% 0 mm
12:50 0.7 °C -1.1 °C 983 hPa West 12.9 km/h 22.5 km/h 88% 0 mm
12:55 0.4 °C -1.4 °C 983 hPa West 17.7 km/h 35.4 km/h 88% 0 mm
13:00 0.2 °C -1.4 °C 983 hPa West 16.1 km/h 35.4 km/h 89% 0 mm
13:05 0 °C -1.6 °C 983 hPa West 17.7 km/h 29 km/h 89% 0 mm
13:10 -0.1 °C -1.5 °C 983 hPa WNW 11.3 km/h 27.4 km/h 90% 0 mm
13:15 -0.2 °C -1.6 °C 983.3 hPa West 16.1 km/h 37 km/h 90% 0 mm
13:20 -0.2 °C -1.7 °C 983.3 hPa West 12.9 km/h 37 km/h 90% 0 mm
13:25 -0.3 °C -1.6 °C 983.3 hPa WNW 16.1 km/h 32.2 km/h 91% 0 mm
13:35 -0.4 °C -1.7 °C 983.3 hPa West 11.3 km/h 24.1 km/h 91% 0 mm
13:40 -0.4 °C -1.7 °C 983.3 hPa WNW 20.9 km/h 38.6 km/h 91% 0 mm
13:45 -0.7 °C -1.9 °C 983.6 hPa West 17.7 km/h 38.6 km/h 91% 0 mm
13:55 -0.9 °C -2.2 °C 984 hPa West 20.9 km/h 35.4 km/h 91% 0 mm
14:00 -1 °C -2.1 °C 984 hPa West 22.5 km/h 37 km/h 92% 0 mm
14:05 -1.2 °C -2.5 °C 984 hPa West 20.9 km/h 37 km/h 91% 0 mm
14:10 -1.6 °C -2.8 °C 984.3 hPa West 22.5 km/h 41.8 km/h 91% 0 mm
14:15 -1.8 °C -3.1 °C 984.3 hPa West 20.9 km/h 41.8 km/h 91% 0 mm
14:20 -1.8 °C -3.1 °C 984.6 hPa West 14.5 km/h 37 km/h 91% 0 mm
14:25 -1.9 °C -3.2 °C 984.6 hPa WSW 17.7 km/h 33.8 km/h 91% 0 mm
14:30 -1.9 °C -3.2 °C 984.6 hPa West 16.1 km/h 41.8 km/h 91% 0 mm
14:40 -2.1 °C -3.2 °C 985 hPa WSW 12.9 km/h 24.1 km/h 92% 0 mm
14:50 -2.2 °C -3.3 °C 985 hPa West 12.9 km/h 24.1 km/h 92% 0 mm
14:55 -2.2 °C -3.3 °C 985 hPa West 17.7 km/h 25.7 km/h 92% 0 mm
15:00 -2.3 °C -3.4 °C 985.3 hPa WSW 14.5 km/h 35.4 km/h 92% 0 mm
15:05 -2.4 °C -3.5 °C 985.3 hPa WSW 14.5 km/h 35.4 km/h 92% 0 mm
15:10 -2.5 °C -3.6 °C 985.3 hPa West 14.5 km/h 35.4 km/h 92% 0 mm
15:15 -2.6 °C -3.7 °C 985.7 hPa WSW 12.9 km/h 35.4 km/h 92% 0 mm
15:20 -2.7 °C -3.8 °C 985.7 hPa West 16.1 km/h 32.2 km/h 92% 0 mm
15:25 -2.8 °C -3.9 °C 986 hPa West 16.1 km/h 30.6 km/h 92% 0 mm
15:30 -2.9 °C -4.2 °C 986 hPa WSW 16.1 km/h 32.2 km/h 91% 0 mm
15:35 -3.1 °C -4.2 °C 986 hPa West 12.9 km/h 32.2 km/h 92% 0 mm
15:40 -3.2 °C -4.4 °C 986 hPa WSW 16.1 km/h 32.2 km/h 91% 0 mm
15:45 -3.3 °C -4.6 °C 986.3 hPa WSW 12.9 km/h 33.8 km/h 91% 0 mm
15:50 -3.4 °C -4.7 °C 986.3 hPa WSW 12.9 km/h 33.8 km/h 91% 0 mm
15:55 -3.4 °C -4.7 °C 986.3 hPa WSW 11.3 km/h 25.7 km/h 91% 0 mm
16:00 -3.4 °C -4.7 °C 986.3 hPa WSW 12.9 km/h 24.1 km/h 91% 0 mm
16:05 -3.4 °C -4.6 °C 986.7 hPa WSW 14.5 km/h 22.5 km/h 92% 0 mm
16:10 -3.4 °C -4.6 °C 986.7 hPa WSW 14.5 km/h 24.1 km/h 92% 0 mm
16:15 -3.5 °C -4.6 °C 986.7 hPa WSW 11.3 km/h 24.1 km/h 92% 0 mm
16:20 -3.6 °C -4.8 °C 986.7 hPa WSW 11.3 km/h 22.5 km/h 91% 0 mm
16:25 -3.6 °C -4.8 °C 986.7 hPa WSW 9.7 km/h 22.5 km/h 91% 0 mm
16:30 -3.6 °C -4.8 °C 987 hPa SW 9.7 km/h 17.7 km/h 91% 0 mm
16:35 -3.7 °C -4.9 °C 987 hPa SW 11.3 km/h 22.5 km/h 91% 0 mm
16:40 -3.7 °C -5 °C 987 hPa WSW 12.9 km/h 29 km/h 91% 0 mm
16:45 -3.8 °C -5.1 °C 987 hPa WSW 11.3 km/h 29 km/h 91% 0 mm
16:50 -3.8 °C -5.1 °C 987 hPa WSW 11.3 km/h 25.7 km/h 91% 0 mm
16:55 -3.8 °C -5.1 °C 987 hPa WSW 12.9 km/h 24.1 km/h 91% 0 mm
17:00 -3.8 °C -5.1 °C 987 hPa SW 14.5 km/h 30.6 km/h 91% 0 mm
17:05 -3.7 °C -5 °C 987.4 hPa SW 12.9 km/h 30.6 km/h 91% 0 mm
17:10 -3.7 °C -4.9 °C 987.4 hPa WSW 6.4 km/h 22.5 km/h 91% 0 mm
17:15 -3.7 °C -4.9 °C 987.7 hPa SW 11.3 km/h 19.3 km/h 91% 0 mm
17:20 -3.7 °C -5 °C 987.7 hPa WSW 8 km/h 25.7 km/h 91% 0 mm
17:25 -3.7 °C -5 °C 987.7 hPa SW 12.9 km/h 25.7 km/h 91% 0 mm
17:30 -3.8 °C -5.1 °C 988 hPa SW 11.3 km/h 25.7 km/h 91% 0 mm
17:35 -3.9 °C -5.2 °C 988 hPa WSW 9.7 km/h 25.7 km/h 91% 0 mm
17:40 -4 °C -5.3 °C 988 hPa SW 6.4 km/h 24.1 km/h 91% 0 mm
17:45 -4.1 °C -5.3 °C 988.4 hPa SW 11.3 km/h 24.1 km/h 91% 0 mm
17:50 -4.2 °C -5.4 °C 988.4 hPa SW 9.7 km/h 22.5 km/h 91% 0 mm
17:55 -4.2 °C -5.4 °C 988.4 hPa SW 11.3 km/h 22.5 km/h 91% 0 mm
18:00 -4.3 °C -5.5 °C 988.7 hPa WSW 6.4 km/h 22.5 km/h 91% 0 mm
18:05 -4.3 °C -5.5 °C 988.7 hPa WSW 11.3 km/h 19.3 km/h 91% 0 mm
18:10 -4.3 °C -5.6 °C 988.7 hPa SW 8 km/h 19.3 km/h 91% 0 mm
18:15 -4.3 °C -5.6 °C 989.1 hPa WSW 6.4 km/h 19.3 km/h 91% 0 mm
18:20 -4.4 °C -5.6 °C 989.1 hPa SW 9.7 km/h 20.9 km/h 91% 0 mm
18:25 -4.4 °C -5.7 °C 989.1 hPa SW 8 km/h 20.9 km/h 91% 0 mm
18:30 -4.5 °C -5.7 °C 989.4 hPa SW 8 km/h 20.9 km/h 91% 0 mm
18:35 -4.6 °C -5.8 °C 989.4 hPa SW 11.3 km/h 22.5 km/h 91% 0 mm
18:45 -4.6 °C -5.8 °C 989.7 hPa SW 9.7 km/h 19.3 km/h 91% 0 mm
18:50 -4.6 °C -5.8 °C 989.7 hPa WSW 11.3 km/h 19.3 km/h 91% 0 mm
18:55 -4.6 °C -5.8 °C 989.7 hPa SW 11.3 km/h 22.5 km/h 91% 0 mm
19:00 -4.6 °C -5.8 °C 990.1 hPa SW 9.7 km/h 22.5 km/h 91% 0 mm
19:05 -4.6 °C -5.8 °C 990.1 hPa SW 12.9 km/h 19.3 km/h 91% 0 mm
19:10 -4.5 °C -5.7 °C 990.4 hPa SW 9.7 km/h 19.3 km/h 91% 0 mm
19:15 -4.4 °C -5.6 °C 990.4 hPa WSW 12.9 km/h 20.9 km/h 91% 0 mm
19:20 -4.3 °C -5.6 °C 990.7 hPa SW 9.7 km/h 20.9 km/h 91% 0 mm
19:25 -4.3 °C -5.5 °C 990.7 hPa SW 11.3 km/h 25.7 km/h 91% 0 mm
19:35 -4.2 °C -5.4 °C 991.1 hPa SW 9.7 km/h 20.9 km/h 91% 0 mm
19:40 -4.2 °C -5.4 °C 991.4 hPa WSW 11.3 km/h 20.9 km/h 91% 0 mm
19:45 -4.2 °C -5.4 °C 991.8 hPa SW 9.7 km/h 24.1 km/h 91% 0 mm
19:50 -4.2 °C -5.4 °C 991.8 hPa WSW 8 km/h 24.1 km/h 91% 0 mm
19:55 -4.1 °C -5.3 °C 992.1 hPa WSW 8 km/h 17.7 km/h 91% 0 mm
20:00 -4.1 °C -5.3 °C 992.1 hPa WSW 8 km/h 17.7 km/h 91% 0 mm
20:05 -4.1 °C -5.3 °C 992.4 hPa WSW 8 km/h 16.1 km/h 91% 0 mm
20:10 -4.1 °C -5.3 °C 992.8 hPa WSW 9.7 km/h 22.5 km/h 91% 0 mm
20:15 -3.9 °C -5.2 °C 992.8 hPa WSW 9.7 km/h 22.5 km/h 91% 0 mm
20:20 -3.9 °C -5.2 °C 993.1 hPa WSW 8 km/h 22.5 km/h 91% 0 mm
20:25 -3.8 °C -5.1 °C 993.5 hPa WSW 4.8 km/h 19.3 km/h 91% 0 mm
20:30 -3.8 °C -4.9 °C 993.5 hPa West 3.2 km/h 11.3 km/h 92% 0 mm
20:40 -3.6 °C -4.7 °C 993.8 hPa West 9.7 km/h 16.1 km/h 92% 0 mm
20:45 -3.5 °C -4.6 °C 993.8 hPa WNW 8 km/h 16.1 km/h 92% 0 mm
20:50 -3.4 °C -4.6 °C 994.1 hPa West 11.3 km/h 20.9 km/h 92% 0 mm
20:55 -3.4 °C -4.5 °C 994.1 hPa WNW 8 km/h 20.9 km/h 92% 0 mm
21:00 -3.3 °C -4.4 °C 994.1 hPa WNW 4.8 km/h 16.1 km/h 92% 0 mm
21:05 -3.3 °C -4.4 °C 994.5 hPa WNW 8 km/h 17.7 km/h 92% 0 mm
21:10 -3.2 °C -4.3 °C 994.5 hPa WNW 8 km/h 17.7 km/h 92% 0 mm
21:15 -3.3 °C -4.4 °C 994.8 hPa NW 8 km/h 16.1 km/h 92% 0 mm
21:20 -3.2 °C -4.3 °C 994.8 hPa WNW 6.4 km/h 16.1 km/h 92% 0 mm
21:25 -3.3 °C -4.6 °C 994.8 hPa WNW 8 km/h 24.1 km/h 91% 0 mm
21:30 -3.3 °C -4.6 °C 995.1 hPa WNW 11.3 km/h 24.1 km/h 91% 0 mm
21:35 -3.5 °C -4.8 °C 995.5 hPa WNW 9.7 km/h 20.9 km/h 91% 0 mm
21:45 -3.8 °C -5.1 °C 995.8 hPa WNW 11.3 km/h 17.7 km/h 91% 0 mm
21:50 -3.9 °C -5.2 °C 995.8 hPa WNW 6.4 km/h 17.7 km/h 91% 0 mm
21:55 -4 °C -5.3 °C 995.8 hPa NW 6.4 km/h 17.7 km/h 91% 0 mm
22:00 -4.1 °C -5.3 °C 996.2 hPa WNW 6.4 km/h 16.1 km/h 91% 0 mm
22:05 -4.3 °C -5.7 °C 996.2 hPa WNW 11.3 km/h 17.7 km/h 90% 0 mm
22:10 -4.4 °C -5.8 °C 996.2 hPa WNW 9.7 km/h 17.7 km/h 90% 0 mm
22:15 -4.6 °C -6 °C 996.5 hPa WNW 12.9 km/h 20.9 km/h 90% 0 mm
22:20 -4.8 °C -6.2 °C 996.8 hPa NW 14.5 km/h 24.1 km/h 90% 0 mm
22:25 -4.9 °C -6.5 °C 996.8 hPa WNW 11.3 km/h 24.1 km/h 89% 0 mm
22:30 -5.1 °C -6.7 °C 997.2 hPa WNW 9.7 km/h 24.1 km/h 89% 0 mm
22:35 -5.2 °C -6.8 °C 997.2 hPa NW 11.3 km/h 19.3 km/h 89% 0 mm
22:40 -5.3 °C -6.8 °C 997.5 hPa WNW 12.9 km/h 24.1 km/h 89% 0 mm
22:45 -5.5 °C -7 °C 997.5 hPa WNW 11.3 km/h 24.1 km/h 89% 0 mm
22:50 -5.6 °C -7.1 °C 997.5 hPa WNW 11.3 km/h 24.1 km/h 89% 0 mm
22:55 -5.6 °C -7.2 °C 997.9 hPa WNW 14.5 km/h 29 km/h 88% 0 mm
23:00 -5.6 °C -7.1 °C 997.9 hPa West 14.5 km/h 32.2 km/h 89% 0 mm
23:05 -5.6 °C -7.2 °C 998.2 hPa WNW 12.9 km/h 32.2 km/h 88% 0 mm
23:10 -5.7 °C -7.3 °C 998.2 hPa WNW 22.5 km/h 32.2 km/h 88% 0 mm
23:15 -5.8 °C -7.4 °C 998.2 hPa WNW 17.7 km/h 32.2 km/h 88% 0 mm
23:20 -5.9 °C -7.6 °C 998.5 hPa West 12.9 km/h 30.6 km/h 88% 0 mm
23:25 -5.9 °C -7.6 °C 998.5 hPa WNW 17.7 km/h 29 km/h 88% 0 mm
23:30 -6 °C -7.8 °C 998.9 hPa WNW 11.3 km/h 29 km/h 87% 0 mm
23:35 -6.1 °C -7.9 °C 998.9 hPa WNW 12.9 km/h 27.4 km/h 87% 0 mm
23:40 -6.2 °C -8 °C 998.9 hPa WNW 16.1 km/h 27.4 km/h 87% 0 mm
23:45 -6.2 °C -8.1 °C 999.2 hPa WNW 14.5 km/h 27.4 km/h 87% 0 mm
23:50 -6.3 °C -8.1 °C 999.2 hPa West 12.9 km/h 27.4 km/h 87% 0 mm
23:55 -6.4 °C -8.2 °C 999.2 hPa West 12.9 km/h 27.4 km/h 87% 0 mm
Westford Weather
Compliments of Weather Underground

 
 
Current Radar Loop:

Copyright © WestfordWeather.net 2007-2014. All rights reserved.